LFBO/TLS METAR and TAF weather

Enter ICAO airport designator
Station Type Date Time Source
LFBO METAR 2021/08/05 03:30 UTC NOAA

LFBO 050330Z AUTO 23005KT 9999 SCT008 BKN160 16/15 Q1016 TEMPO 3000 BR BKN004


Station Type Date Time Source
LFBO Decoded METAR 2021/08/05 03:30 UTC NOAA

Toulouse / Blagnac, France (LFBO) 43-38N 001-22E 153M
Aug 04, 2021 - 11:30 PM EDT / 2021.08.05 0330 UTC
Wind: from the SW (230 degrees) at 6 MPH (5 KT):0
Visibility: greater than 7 mile(s):0
Sky conditions: mostly cloudy
Temperature: 60 F (16 C)
Dew Point: 59 F (15 C)
Relative Humidity: 93%
Pressure (altimeter): 30.00 in. Hg (1016 hPa)
ob: LFBO 050330Z AUTO 23005KT 9999 SCT008 BKN160 16/15 Q1016 TEMPO 3000 BR BKN004
cycle: 3

Station Type Date Time Source
LFBO TAF 2021/08/04 18:49 UTC NOAA

TAF LFBO 041700Z 0418/0524 27012KT CAVOK
TEMPO 0418/0419 27015G25KT SCT040TCU
BECMG 0501/0503 VRB03KT BKN005
TEMPO 0503/0506 3000 BR
BECMG 0506/0508 BKN011
BECMG 0508/0510 CAVOK
BECMG 0520/0521 28010KT

Example: see airport list